Time;durP1;ratioP1;P1;durP2;ratioP2;P2;SDS_P1;SDS_P2;PMS_P1;PMS_P2;Temp;Humidity;BMP_temperature;BMP_pressure;BME280_temperature;BME280_humidity;BME280_pressure;Samples;Min_cycle;Max_cycle;Signal;HPM_P1;HPM_P2
2022/10/24 00:01:37;;;;;;;5.40;2.45;;;;;;;-148.88;100.00;74989.19;5075170;28;20033;-77
2022/10/24 00:04:03;;;;;;;8.68;2.97;;;;;;;-148.88;100.00;74991.22;5075187;28;20383;-77
2022/10/24 00:06:28;;;;;;;5.43;2.78;;;;;;;-148.88;100.00;74989.19;5073805;28;20398;-76
2022/10/24 00:08:54;;;;;;;6.75;3.10;;;;;;;-148.88;100.00;74997.31;5075333;28;20471;-76
2022/10/24 00:11:26;;;;;;;11.35;2.72;;;;;;;-148.88;100.00;75001.38;5074899;28;20111;-77
2022/10/24 00:13:53;;;;;;;11.45;2.50;;;;;;;-148.88;100.00;74989.19;5075160;28;20013;-76
2022/10/24 00:16:18;;;;;;;8.48;2.58;;;;;;;-148.88;100.00;74993.25;5074910;28;20033;-76
2022/10/24 00:18:44;;;;;;;7.78;2.83;;;;;;;-148.88;100.00;74991.22;5074902;28;20066;-76
2022/10/24 00:21:09;;;;;;;7.70;3.00;;;;;;;-148.88;100.00;74983.09;5073480;28;20029;-76
2022/10/24 00:23:35;;;;;;;8.23;2.75;;;;;;;-148.88;100.00;74985.13;5074801;28;20020;-76
2022/10/24 00:26:02;;;;;;;8.05;2.92;;;;;;;-148.88;100.00;74981.06;5074790;28;20029;-76
2022/10/24 00:28:30;;;;;;;7.28;2.70;;;;;;;-148.88;100.00;74968.88;5074731;28;20032;-78
2022/10/24 00:30:56;;;;;;;11.75;3.40;;;;;;;-148.88;100.00;74972.94;5074620;28;20093;-76
2022/10/24 00:33:22;;;;;;;7.40;3.05;;;;;;;-148.88;100.00;74962.78;5074565;28;20027;-77
2022/10/24 00:35:47;;;;;;;8.73;2.88;;;;;;;-148.88;100.00;74956.69;5074535;28;20029;-76
2022/10/24 00:38:13;;;;;;;7.07;2.90;;;;;;;-148.88;100.00;74960.75;5073705;28;20024;-77
2022/10/24 00:40:38;;;;;;;6.47;2.78;;;;;;;-148.88;100.00;74968.88;5073138;28;20028;-76
2022/10/24 00:43:04;;;;;;;9.80;3.55;;;;;;;-148.88;100.00;74966.84;5074446;28;20021;-76
2022/10/24 00:45:37;;;;;;;9.48;3.25;;;;;;;-148.88;100.00;74958.72;5074614;28;20107;-77
2022/10/24 00:48:29;;;;;;;9.48;3.33;;;;;;;-148.88;100.00;74956.69;5074245;28;20398;-77
2022/10/24 00:50:59;;;;;;;8.60;3.25;;;;;;;-148.88;100.00;74958.72;5073725;28;20043;-76
2022/10/24 00:53:27;;;;;;;6.78;3.28;;;;;;;-148.88;100.00;74960.75;5074161;28;20063;-76
2022/10/24 00:55:55;;;;;;;8.57;2.97;;;;;;;-148.88;100.00;74954.66;5074188;28;20074;-76
2022/10/24 00:58:24;;;;;;;8.07;3.20;;;;;;;-148.88;100.00;74948.56;5074158;28;20033;-76
2022/10/24 01:00:50;;;;;;;8.07;2.65;;;;;;;-148.88;100.00;74940.47;5074061;28;20044;-76
2022/10/24 01:03:16;;;;;;;11.73;3.33;;;;;;;-148.88;100.00;74936.41;5073938;28;20111;-76
2022/10/24 01:06:17;;;;;;;9.35;3.35;;;;;;;-148.88;100.00;74924.22;5073921;28;20120;-76
2022/10/24 01:08:45;;;;;;;10.52;3.50;;;;;;;-148.88;100.00;74918.13;5074199;28;20024;-76
2022/10/24 01:11:26;;;;;;;13.05;4.75;;;;;;;-148.88;100.00;74907.97;5073762;28;20071;-76
2022/10/24 01:14:04;;;;;;;9.90;3.40;;;;;;;-148.88;100.00;74895.78;5072622;28;20397;-76
2022/10/24 01:16:46;;;;;;;9.40;3.45;;;;;;;-148.88;100.00;74901.88;5073788;28;20028;-76
2022/10/24 01:19:48;;;;;;;10.77;3.75;;;;;;;-148.88;100.00;74895.78;5073709;28;20024;-76
2022/10/24 01:22:37;;;;;;;8.38;3.40;;;;;;;-148.88;100.00;74895.78;5073588;28;20020;-76
2022/10/24 01:25:10;;;;;;;10.73;3.38;;;;;;;-148.88;100.00;74893.75;5072268;28;20032;-76
2022/10/24 01:27:57;;;;;;;7.95;3.50;;;;;;;-148.88;100.00;74887.66;5067726;22;20037;-83
2022/10/24 01:30:23;;;;;;;9.75;3.15;;;;;;;-148.88;100.00;74889.69;5052997;28;20459;-83
2022/10/24 01:32:54;;;;;;;7.07;3.35;;;;;;;-148.88;100.00;74885.63;5053621;28;20025;-83
2022/10/24 01:35:35;;;;;;;9.45;3.40;;;;;;;-148.88;100.00;74885.63;5054223;28;20108;-83
2022/10/24 01:38:03;;;;;;;10.13;3.50;;;;;;;-148.88;100.00;74879.53;5052703;28;20032;-83
2022/10/24 01:40:37;;;;;;;11.35;3.65;;;;;;;-148.88;100.00;74893.75;5096713;22;20049;-83
2022/10/24 01:43:12;;;;;;;10.55;3.67;;;;;;;-148.88;100.00;74893.75;5076837;28;20020;-83
2022/10/24 01:45:42;;;;;;;9.43;3.40;;;;;;;-148.88;100.00;74891.72;5076606;28;20031;-83
2022/10/24 01:48:13;;;;;;;9.13;3.40;;;;;;;-148.88;100.00;74883.59;5074223;28;20123;-83
2022/10/24 01:50:41;;;;;;;8.20;3.33;;;;;;;-148.88;100.00;74883.59;5073735;28;20032;-82
2022/10/24 01:53:08;;;;;;;11.68;3.40;;;;;;;-148.88;100.00;74877.50;5075981;28;20029;-83
2022/10/24 01:55:35;;;;;;;8.63;3.13;;;;;;;-148.88;100.00;74871.41;5076247;28;20510;-82
2022/10/24 01:58:00;;;;;;;9.98;3.20;;;;;;;-148.88;100.00;74885.63;5078092;28;20029;-83
2022/10/24 02:00:28;;;;;;;11.73;3.55;;;;;;;-148.88;100.00;74891.72;5082377;28;20037;-83
2022/10/24 02:03:00;;;;;;;10.07;3.65;;;;;;;-148.88;100.00;74893.75;5080598;28;20026;-83
2022/10/24 02:05:38;;;;;;;8.50;3.70;;;;;;;-148.88;100.00;74883.59;5077224;28;20024;-82
2022/10/24 02:08:09;;;;;;;9.10;3.05;;;;;;;-148.88;100.00;74881.56;5076424;28;20020;-82
2022/10/24 02:10:46;;;;;;;11.25;3.42;;;;;;;-148.88;100.00;74869.38;5076621;28;20024;-83
2022/10/24 02:13:22;;;;;;;11.02;3.00;;;;;;;-148.88;100.00;74863.28;5075672;28;20082;-82
2022/10/24 02:15:51;;;;;;;8.32;3.15;;;;;;;-148.88;100.00;74863.28;5076366;28;20023;-82
2022/10/24 02:18:17;;;;;;;10.43;2.80;;;;;;;-148.88;100.00;74867.34;5075299;28;20031;-82
2022/10/24 02:21:11;;;;;;;9.63;3.28;;;;;;;-148.88;100.00;74873.44;5077578;28;20027;-82
2022/10/24 02:23:42;;;;;;;11.95;3.50;;;;;;;-148.88;100.00;74889.69;5077557;28;20036;-83
2022/10/24 02:26:14;;;;;;;8.15;3.40;;;;;;;-148.88;100.00;74875.47;5075978;28;20027;-83
2022/10/24 02:28:44;;;;;;;8.10;3.05;;;;;;;-148.88;100.00;74863.28;5076884;28;20084;-83
2022/10/24 02:31:21;;;;;;;9.82;3.47;;;;;;;-148.88;100.00;74859.22;5076221;28;20036;-83
2022/10/24 02:33:49;;;;;;;11.05;3.72;;;;;;;-148.88;100.00;74857.19;5077630;28;20032;-83
2022/10/24 02:36:18;;;;;;;7.90;2.88;;;;;;;-148.88;100.00;74851.09;5077071;28;20024;-83
2022/10/24 02:38:47;;;;;;;12.93;3.50;;;;;;;-148.88;100.00;74840.94;5077179;28;20021;-83
2022/10/24 02:41:18;;;;;;;9.95;3.15;;;;;;;-148.88;100.00;74820.63;5075777;28;20028;-81
2022/10/24 02:43:45;;;;;;;5.93;3.08;;;;;;;-148.88;100.00;74810.50;5076698;28;20077;-83
2022/10/24 02:46:13;;;;;;;11.75;3.40;;;;;;;-148.88;100.00;74800.34;5077889;28;20024;-84
2022/10/24 02:48:44;;;;;;;8.40;3.28;;;;;;;-148.88;100.00;74786.13;5074781;28;20025;-83
2022/10/24 02:51:13;;;;;;;7.03;3.05;;;;;;;-148.88;100.00;74786.13;5075897;28;20541;-83
2022/10/24 02:53:40;;;;;;;7.43;2.85;;;;;;;-148.88;100.00;74769.88;5077656;28;20043;-83
2022/10/24 02:56:06;;;;;;;11.43;2.80;;;;;;;-148.88;100.00;74745.50;5077565;28;20433;-83
2022/10/24 02:58:31;;;;;;;9.40;2.78;;;;;;;-148.88;99.84;74743.47;5077336;28;20025;-83
2022/10/24 03:00:56;;;;;;;8.32;2.63;;;;;;;-148.88;97.75;74713.00;5076176;28;20052;-83
2022/10/24 03:03:21;;;;;;;8.73;2.97;;;;;;;-148.88;98.02;74706.91;5078017;28;20047;-83
2022/10/24 03:05:47;;;;;;;7.95;2.70;;;;;;;-148.88;97.17;74696.78;5076544;28;20123;-83
2022/10/24 03:08:13;;;;;;;8.95;3.05;;;;;;;-148.88;97.28;74698.78;5076558;28;20050;-84
2022/10/24 03:10:38;;;;;;;9.32;3.10;;;;;;;-148.88;97.81;74704.88;5076866;28;20021;-83
2022/10/24 03:13:04;;;;;;;8.60;3.10;;;;;;;-148.88;97.67;74708.94;5076666;28;20108;-84
2022/10/24 03:15:29;;;;;;;6.68;2.92;;;;;;;-148.88;97.23;74696.78;5077828;28;20386;-84
2022/10/24 03:17:54;;;;;;;6.60;2.70;;;;;;;-148.88;96.69;74680.53;5077094;28;20029;-85
2022/10/24 03:20:20;;;;;;;11.20;2.67;;;;;;;-148.88;96.82;74692.72;5077649;28;20029;-84
2022/10/24 03:22:45;;;;;;;8.77;2.60;;;;;;;-148.88;96.39;74680.53;5076534;28;20465;-83
2022/10/24 03:25:10;;;;;;;11.30;2.58;;;;;;;-148.88;96.06;74682.56;5073879;28;20025;-84
2022/10/24 03:27:36;;;;;;;10.93;2.78;;;;;;;-148.88;96.64;74684.59;5076682;28;20052;-84
2022/10/24 03:30:03;;;;;;;11.50;2.63;;;;;;;-148.88;96.20;74684.59;5081166;28;20035;-84
2022/10/24 03:32:28;;;;;;;7.25;2.75;;;;;;;-148.88;95.77;74686.63;5080383;28;20025;-84
2022/10/24 03:34:53;;;;;;;10.45;2.63;;;;;;;-148.88;95.82;74682.56;5080951;28;20028;-84
2022/10/24 03:37:19;;;;;;;12.70;2.75;;;;;;;-148.88;95.88;74688.66;5079488;28;20120;-85
2022/10/24 03:39:44;;;;;;;10.50;3.15;;;;;;;-148.88;95.86;74684.59;5080126;28;20059;-81
2022/10/24 03:42:10;;;;;;;8.73;2.90;;;;;;;-148.88;95.67;74674.44;5080282;28;20036;-84
2022/10/24 03:44:35;;;;;;;8.05;2.90;;;;;;;-148.88;95.25;74664.28;5080088;28;20021;-83
2022/10/24 03:47:00;;;;;;;7.00;2.85;;;;;;;-148.88;94.96;74658.19;5081107;28;20051;-84
2022/10/24 03:49:26;;;;;;;7.03;3.30;;;;;;;-148.88;94.57;74656.16;5080811;28;20394;-84
2022/10/24 03:51:51;;;;;;;6.90;2.80;;;;;;;-148.88;94.46;74658.19;5080695;28;20032;-84
2022/10/24 03:54:16;;;;;;;10.48;3.13;;;;;;;-148.88;94.16;74648.03;5079834;28;20027;-84
2022/10/24 03:56:43;;;;;;;7.18;2.72;;;;;;;-148.88;94.36;74648.03;5081258;28;20024;-84
2022/10/24 03:59:09;;;;;;;7.28;2.65;;;;;;;-148.88;93.76;74635.84;5080658;28;20027;-83
2022/10/24 04:01:34;;;;;;;10.88;2.60;;;;;;;-148.88;93.50;74639.91;5079114;28;20028;-84
2022/10/24 04:03:59;;;;;;;7.32;2.38;;;;;;;-148.88;93.50;74646.00;5085773;28;20016;-84
2022/10/24 04:06:25;;;;;;;9.57;2.88;;;;;;;-148.88;93.68;74654.13;5086833;28;20084;-84
2022/10/24 04:08:50;;;;;;;8.13;2.53;;;;;;;-148.88;93.29;74648.03;5085135;28;20054;-84
2022/10/24 04:11:15;;;;;;;7.05;2.72;;;;;;;-148.88;93.36;74652.09;5081276;28;20021;-84
2022/10/24 04:13:41;;;;;;;6.93;2.60;;;;;;;-148.88;93.94;74672.41;5082258;28;20077;-83
2022/10/24 04:16:07;;;;;;;13.57;2.95;;;;;;;-148.88;93.48;74668.34;5080381;28;20021;-84
2022/10/24 04:18:32;;;;;;;6.88;2.47;;;;;;;-148.88;93.50;74666.31;5080715;28;20036;-84
2022/10/24 04:20:57;;;;;;;10.13;2.60;;;;;;;-148.88;93.63;74676.47;5081776;28;20020;-85
2022/10/24 04:23:23;;;;;;;6.28;2.75;;;;;;;-148.88;93.92;74688.66;5081839;28;20111;-83
2022/10/24 04:25:48;;;;;;;6.00;2.47;;;;;;;-148.88;93.49;74684.59;5081388;28;20071;-84
2022/10/24 04:28:14;;;;;;;9.70;2.63;;;;;;;-148.88;93.56;74684.59;5079200;28;20134;-84
2022/10/24 04:30:39;;;;;;;9.70;2.70;;;;;;;-148.88;93.80;74696.78;5081342;28;20028;-84
2022/10/24 04:33:04;;;;;;;8.77;2.72;;;;;;;-148.88;92.90;74678.50;5080202;28;20119;-83
2022/10/24 04:35:30;;;;;;;9.13;2.42;;;;;;;-148.88;93.11;74680.53;5079683;28;20021;-88
2022/10/24 04:37:55;;;;;;;8.23;2.38;;;;;;;-148.88;93.36;74688.66;5074304;28;20032;-87
2022/10/24 04:40:20;;;;;;;9.43;2.97;;;;;;;-148.88;93.74;74700.84;5074907;28;20039;-85
2022/10/24 04:42:46;;;;;;;11.25;2.83;;;;;;;-148.88;93.60;74694.75;5077742;28;20028;-86
2022/10/24 04:45:11;;;;;;;8.45;2.65;;;;;;;-148.88;93.52;74690.69;5076622;28;20031;-86
2022/10/24 04:47:37;;;;;;;8.85;2.58;;;;;;;-148.88;93.82;74700.84;5078243;28;20020;-85
2022/10/24 04:50:04;;;;;;;7.43;3.03;;;;;;;-148.88;93.58;74696.78;5076184;28;20048;-85
2022/10/24 04:52:29;;;;;;;7.53;2.40;;;;;;;-148.88;92.88;74684.59;5077599;28;20044;-84
2022/10/24 04:54:54;;;;;;;5.82;2.30;;;;;;;-148.88;92.98;74692.72;5078068;28;20025;-84
2022/10/24 04:57:19;;;;;;;8.50;2.70;;;;;;;-148.88;93.12;74684.59;5078093;28;20020;-87
2022/10/24 04:59:45;;;;;;;10.07;2.65;;;;;;;-148.88;93.05;74694.75;5076906;28;20028;-86
2022/10/24 05:02:10;;;;;;;7.93;2.78;;;;;;;-148.88;93.46;74698.78;5077561;28;20077;-86
2022/10/24 05:04:35;;;;;;;7.07;2.33;;;;;;;-148.88;93.94;74700.84;5077455;28;20091;-85
2022/10/24 05:07:01;;;;;;;7.38;2.25;;;;;;;-148.88;93.31;74692.72;5077795;28;20027;-84
2022/10/24 05:09:26;;;;;;;9.63;2.28;;;;;;;-148.88;93.53;74698.78;5075938;28;20063;-87
2022/10/24 05:11:55;;;;;;;7.35;2.50;;;;;;;-148.88;93.80;74704.88;5076114;28;20062;-88
2022/10/24 05:14:21;;;;;;;7.38;2.47;;;;;;;-148.88;93.87;74704.88;5073253;28;20055;-87
2022/10/24 05:16:48;;;;;;;7.75;2.60;;;;;;;-148.88;94.10;74708.94;5073511;28;20368;-87
2022/10/24 05:19:14;;;;;;;6.90;2.20;;;;;;;-148.88;93.13;74686.63;5073575;28;20394;-86
2022/10/24 05:21:39;;;;;;;6.85;2.33;;;;;;;-148.88;93.82;74690.69;5073313;28;20032;-86
2022/10/24 05:24:04;;;;;;;9.05;2.42;;;;;;;-148.88;92.97;74676.47;5073484;28;20616;-87
2022/10/24 05:26:30;;;;;;;7.30;2.35;;;;;;;-148.88;92.97;74678.50;5073732;28;20073;-86
2022/10/24 05:28:55;;;;;;;12.25;3.10;;;;;;;-148.88;92.36;74670.38;5073538;28;20086;-86
2022/10/24 05:31:21;;;;;;;9.77;2.38;;;;;;;-148.88;92.02;74670.38;5073760;28;20040;-87
2022/10/24 05:33:49;;;;;;;8.65;2.45;;;;;;;-148.88;91.17;74654.13;5073624;28;20020;-86
2022/10/24 05:36:14;;;;;;;7.97;2.38;;;;;;;-148.88;91.01;74660.22;5073359;28;20021;-86
2022/10/24 05:38:40;;;;;;;8.32;2.42;;;;;;;-148.88;91.00;74660.22;5073516;28;20024;-86
2022/10/24 05:41:05;;;;;;;5.82;2.42;;;;;;;-148.88;90.95;74662.25;5073420;28;20111;-87
2022/10/24 05:43:30;;;;;;;10.57;2.53;;;;;;;-148.88;92.15;74666.31;5074837;28;20017;-86
2022/10/24 05:45:56;;;;;;;9.32;2.22;;;;;;;-148.88;90.63;74656.16;5075047;28;20050;-86
2022/10/24 05:48:21;;;;;;;7.55;2.50;;;;;;;-148.88;91.00;74656.16;5074007;28;20029;-86
2022/10/24 05:50:46;;;;;;;12.75;2.85;;;;;;;-148.88;90.70;74654.13;5071993;28;20035;-85
2022/10/24 05:53:12;;;;;;;7.63;2.35;;;;;;;-148.88;90.26;74648.03;5072669;28;20032;-85
2022/10/24 05:55:37;;;;;;;11.23;2.78;;;;;;;-148.88;90.25;74633.81;5073475;28;20028;-86
2022/10/24 05:58:03;;;;;;;7.82;2.63;;;;;;;-148.88;90.14;74646.00;5072664;28;20036;-86
2022/10/24 06:00:28;;;;;;;10.05;2.45;;;;;;;-148.88;89.77;74641.94;5074079;28;20039;-86
2022/10/24 06:02:53;;;;;;;6.55;2.42;;;;;;;-148.88;90.33;74652.09;5073307;28;20039;-86
2022/10/24 06:05:19;;;;;;;9.43;2.30;;;;;;;-148.88;90.00;74652.09;5074000;28;20054;-86
2022/10/24 06:07:45;;;;;;;7.43;2.63;;;;;;;-148.88;89.10;74648.03;5073913;28;20047;-86
2022/10/24 06:10:11;;;;;;;9.52;2.67;;;;;;;-148.88;89.84;74660.22;5072975;28;20052;-86
2022/10/24 06:12:37;;;;;;;9.55;2.45;;;;;;;-148.88;89.99;74660.22;5072262;28;20025;-86
2022/10/24 06:15:05;;;;;;;8.82;2.67;;;;;;;-148.88;89.84;74660.22;5073808;28;20026;-86
2022/10/24 06:17:30;;;;;;;11.73;2.65;;;;;;;-148.88;90.31;74664.28;5073729;28;20028;-86
2022/10/24 06:19:56;;;;;;;9.02;2.38;;;;;;;-148.88;90.53;74680.53;5073714;28;20024;-86
2022/10/24 06:22:26;;;;;;;7.30;2.60;;;;;;;-148.88;91.28;74680.53;5072402;28;20021;-87
2022/10/24 06:24:52;;;;;;;6.07;2.60;;;;;;;-148.88;90.79;74680.53;5072761;28;20028;-86
2022/10/24 06:27:17;;;;;;;9.05;2.70;;;;;;;-148.88;90.72;74686.63;5072273;28;20077;-85
2022/10/24 06:29:42;;;;;;;9.02;2.47;;;;;;;-148.88;90.00;74680.53;5073178;28;20055;-86
2022/10/24 06:32:08;;;;;;;11.63;2.65;;;;;;;-148.88;89.46;74684.59;5072111;28;20032;-86
2022/10/24 06:34:34;;;;;;;6.90;2.30;;;;;;;-148.88;89.51;74672.41;5071869;28;20024;-87
2022/10/24 06:37:00;;;;;;;8.93;2.97;;;;;;;-148.88;88.43;74676.47;5072845;28;20162;-86
2022/10/24 06:39:25;;;;;;;8.43;2.28;;;;;;;-148.88;88.30;74678.50;5072171;28;20055;-87
2022/10/24 06:41:50;;;;;;;8.23;2.28;;;;;;;-148.88;88.53;74676.47;5071902;28;20033;-86
2022/10/24 06:44:16;;;;;;;6.25;2.70;;;;;;;-148.88;88.24;74672.41;5071902;28;20044;-88
2022/10/24 06:46:41;;;;;;;8.45;2.60;;;;;;;-148.88;86.73;74666.31;5071883;28;20025;-86
2022/10/24 06:49:07;;;;;;;6.15;2.03;;;;;;;-148.88;87.06;74678.50;5072196;28;20032;-86
2022/10/24 06:51:32;;;;;;;9.13;2.17;;;;;;;-148.88;86.13;74656.16;5071882;28;20413;-87
2022/10/24 06:53:58;;;;;;;7.80;2.15;;;;;;;-148.88;87.03;74674.44;5071832;28;20035;-86
2022/10/24 06:56:24;;;;;;;6.90;2.03;;;;;;;-148.88;85.01;74656.16;5071845;28;20060;-86
2022/10/24 06:58:49;;;;;;;5.50;1.90;;;;;;;-148.88;84.19;74643.97;5072100;28;20048;-87
2022/10/24 07:01:18;;;;;;;6.90;1.63;;;;;;;-148.88;83.64;74635.84;5072424;28;20025;-86
2022/10/24 07:03:44;;;;;;;9.77;2.13;;;;;;;-148.88;83.27;74639.91;5075996;28;20375;-86
2022/10/24 07:06:25;;;;;;;6.90;1.80;;;;;;;-148.88;83.54;74633.81;5075848;28;20402;-86
2022/10/24 07:08:52;;;;;;;8.43;2.17;;;;;;;-148.88;84.69;74646.00;5077183;28;20031;-86
2022/10/24 07:11:18;;;;;;;6.88;2.28;;;;;;;-148.88;83.90;74646.00;5075637;28;20024;-86
2022/10/24 07:13:43;;;;;;;6.18;2.05;;;;;;;-148.88;84.82;74654.13;5075406;28;20048;-87
2022/10/24 07:16:09;;;;;;;6.60;2.00;;;;;;;-148.88;84.87;74654.13;5075925;28;20063;-86
2022/10/24 07:18:35;;;;;;;9.88;2.20;;;;;;;-148.88;85.19;74666.31;5075558;28;20032;-86
2022/10/24 07:21:08;;;;;;;7.38;2.33;;;;;;;-148.88;85.01;74664.28;5076670;28;20091;-86
2022/10/24 07:23:34;;;;;;;7.18;1.98;;;;;;;-148.88;85.12;74672.41;5075582;28;20027;-86
2022/10/24 07:26:04;;;;;;;6.85;1.73;;;;;;;-148.88;83.82;74660.22;5075707;28;20024;-87
2022/10/24 07:28:29;;;;;;;6.63;2.00;;;;;;;-148.88;84.63;74660.22;5075296;28;20115;-88
2022/10/24 07:30:55;;;;;;;5.72;1.90;;;;;;;-148.88;84.26;74658.19;5074944;28;20059;-86
2022/10/24 07:33:24;;;;;;;7.72;1.85;;;;;;;-148.88;83.90;74656.16;5075433;28;20025;-87
2022/10/24 07:35:49;;;;;;;6.22;1.90;;;;;;;-148.88;83.12;74652.09;5075650;28;20025;-87
2022/10/24 07:38:15;;;;;;;7.90;1.70;;;;;;;-148.88;82.82;74648.03;5075359;28;20024;-87
2022/10/24 07:40:41;;;;;;;6.30;1.73;;;;;;;-148.88;82.64;74641.94;5075060;28;20059;-87
2022/10/24 07:43:06;;;;;;;9.02;1.80;;;;;;;-148.88;82.81;74643.97;5074995;28;20028;-87
2022/10/24 07:45:31;;;;;;;8.15;2.05;;;;;;;-148.88;81.51;74633.81;5075036;28;20047;-86
2022/10/24 07:48:04;;;;;;;9.80;2.05;;;;;;;-148.88;81.50;74629.75;5075145;28;20394;-86
2022/10/24 07:50:30;;;;;;;7.63;1.77;;;;;;;-148.88;81.86;74631.78;5075083;28;20027;-86
2022/10/24 07:52:55;;;;;;;7.60;1.60;;;;;;;-148.88;81.75;74629.75;5075878;28;20036;-87
2022/10/24 07:55:20;;;;;;;7.13;1.50;;;;;;;-148.88;81.99;74635.84;5074664;28;20028;-86
2022/10/24 07:57:45;;;;;;;5.75;1.58;;;;;;;-148.88;80.59;74623.66;5074906;28;20367;-87
2022/10/24 08:00:11;;;;;;;5.28;1.70;;;;;;;-148.88;80.40;74603.34;5074588;28;20022;-87
2022/10/24 08:02:36;;;;;;;6.13;1.60;;;;;;;-148.88;78.65;74595.25;5075419;28;20056;-86
2022/10/24 08:05:02;;;;;;;5.25;1.63;;;;;;;-148.88;78.31;74591.19;5076087;28;20023;-86
2022/10/24 08:07:28;;;;;;;4.05;1.40;;;;;;;-148.88;78.73;74579.00;5076636;28;20023;-85
2022/10/24 08:09:54;;;;;;;7.90;2.03;;;;;;;-148.88;78.50;74581.03;5076750;28;20070;-86
2022/10/24 08:12:19;;;;;;;5.55;1.52;;;;;;;-148.88;78.10;74568.84;5075304;28;20024;-86
2022/10/24 08:15:12;;;;;;;4.53;1.50;;;;;;;-148.88;77.90;74566.81;5074948;28;20047;-86
2022/10/24 08:17:40;;;;;;;4.93;1.38;;;;;;;-148.88;78.83;74558.69;5076699;28;20094;-87
2022/10/24 08:20:12;;;;;;;5.45;1.45;;;;;;;-148.88;78.77;74558.69;5075777;28;20028;-87
2022/10/24 08:22:44;;;;;;;5.88;1.40;;;;;;;-148.88;79.90;74564.78;5074540;28;20544;-87
2022/10/24 08:25:34;;;;;;;8.87;1.80;;;;;;;-148.88;79.11;74550.56;5075077;28;20022;-87
2022/10/24 08:28:01;;;;;;;5.95;1.50;;;;;;;-148.88;77.71;74526.19;5076179;28;20060;-86
2022/10/24 08:30:30;;;;;;;5.68;1.65;;;;;;;-148.88;77.91;74534.31;5074203;28;20028;-86
2022/10/24 08:32:58;;;;;;;6.32;1.50;;;;;;;-148.88;77.80;74526.19;5075736;28;20031;-87
2022/10/24 08:35:24;;;;;;;7.55;1.40;;;;;;;-148.88;76.15;74522.13;5074846;28;20074;-86
2022/10/24 08:37:52;;;;;;;8.27;1.83;;;;;;;-148.88;76.43;74514.00;5073726;28;20090;-87
2022/10/24 08:40:24;;;;;;;4.85;1.30;;;;;;;-148.88;76.47;74534.31;5073758;28;20032;-87
2022/10/24 08:42:50;;;;;;;4.35;1.48;;;;;;;-148.88;76.95;74530.25;5074981;28;20470;-87
2022/10/24 08:45:35;;;;;;;9.10;1.45;;;;;;;-148.88;77.97;74516.03;5073964;28;20033;-87
2022/10/24 08:48:18;;;;;;;6.18;1.73;;;;;;;-148.88;77.84;74530.25;5074469;28;20103;-86
2022/10/24 08:50:50;;;;;;;3.70;1.40;;;;;;;-148.88;77.03;74526.19;5074063;28;20028;-86
2022/10/24 08:53:30;;;;;;;5.55;1.20;;;;;;;-148.88;77.33;74536.34;5074529;28;20040;-86
2022/10/24 08:55:58;;;;;;;5.82;1.30;;;;;;;-148.88;76.94;74526.19;5074119;28;20021;-86
2022/10/24 08:58:39;;;;;;;4.85;1.30;;;;;;;-148.88;78.34;74534.31;5073746;28;20020;-87
2022/10/24 09:01:30;;;;;;;6.25;1.60;;;;;;;-148.88;78.48;74516.03;5073593;28;20021;-86
2022/10/24 09:04:04;;;;;;;6.82;1.52;;;;;;;-148.88;76.47;74497.78;5075795;28;20032;-87
2022/10/24 09:06:31;;;;;;;6.40;1.52;;;;;;;-148.88;76.43;74479.50;5074053;28;20480;-87
2022/10/24 09:09:07;;;;;;;15.43;1.65;;;;;;;-148.88;76.72;74457.16;5074963;28;20025;-87
2022/10/24 09:11:49;;;;;;;8.55;1.73;;;;;;;-148.88;73.92;74438.88;5074121;28;20520;-87
2022/10/24 09:14:21;;;;;;;4.32;1.27;;;;;;;-148.88;75.43;74422.63;5073706;28;20085;-86
2022/10/24 09:17:12;;;;;;;4.65;1.30;;;;;;;-148.88;72.91;74406.41;5073815;28;20032;-87
2022/10/24 09:19:52;;;;;;;5.68;1.58;;;;;;;-148.88;74.99;74412.47;5071001;28;20052;-87
2022/10/24 09:22:21;;;;;;;5.85;1.50;;;;;;;-148.88;72.04;74420.59;5073291;28;20029;-86
2022/10/24 09:25:07;;;;;;;5.70;1.40;;;;;;;-148.88;74.18;74436.84;5073819;28;20020;-88
2022/10/24 09:27:38;;;;;;;6.40;1.10;;;;;;;-148.88;75.27;74432.78;5073095;28;20028;-87
2022/10/24 09:30:14;;;;;;;4.65;1.40;;;;;;;-148.88;75.03;74432.78;5073096;28;20029;-88
2022/10/24 09:32:42;;;;;;;6.35;1.42;;;;;;;-148.88;74.04;74449.03;5073541;28;20381;-87
2022/10/24 09:35:14;;;;;;;5.07;1.77;;;;;;;-148.88;73.54;74453.09;5074401;28;20025;-87
2022/10/24 09:37:47;;;;;;;4.18;1.27;;;;;;;-148.88;73.91;74469.34;5073323;28;20028;-88
2022/10/24 09:40:21;;;;;;;5.90;1.40;;;;;;;-148.88;74.13;74485.59;5072431;28;20081;-88
2022/10/24 09:42:58;;;;;;;7.10;1.50;;;;;;;-148.88;74.67;74491.69;5073347;28;20020;-87
2022/10/24 09:45:52;;;;;;;6.93;1.20;;;;;;;-148.88;74.27;74493.72;5073246;28;20034;-87
2022/10/24 09:48:23;;;;;;;7.97;1.38;;;;;;;-148.88;73.25;74507.91;5069368;28;20097;-89
2022/10/24 09:51:01;;;;;;;5.03;1.30;;;;;;;-148.88;74.10;74511.97;5072828;28;20363;-88
2022/10/24 09:53:39;;;;;;;5.10;1.20;;;;;;;-148.88;73.40;74514.00;5073387;28;20482;-88
2022/10/24 09:56:14;;;;;;;4.93;1.20;;;;;;;-148.88;74.55;74518.06;5072780;28;20044;-87
2022/10/24 09:58:45;;;;;;;10.20;1.60;;;;;;;-148.88;74.41;74528.22;5073490;28;20062;-87
2022/10/24 10:01:13;;;;;;;7.20;1.30;;;;;;;-148.88;75.11;74536.34;5072874;28;20052;-87
2022/10/24 10:03:42;;;;;;;5.45;1.45;;;;;;;-148.88;75.23;74544.47;5073515;28;20475;-87
2022/10/24 10:06:16;;;;;;;4.03;1.20;;;;;;;-148.88;74.34;74544.47;5073043;28;20029;-87
2022/10/24 10:08:55;;;;;;;5.25;1.33;;;;;;;-148.88;75.18;74554.63;5072948;28;20020;-87
2022/10/24 10:11:32;;;;;;;3.70;1.00;;;;;;;-148.88;75.88;74558.69;5072492;28;20027;-87
2022/10/24 10:14:00;;;;;;;7.30;1.58;;;;;;;-148.88;75.24;74564.78;5072976;28;20043;-88
2022/10/24 10:16:38;;;;;;;4.32;1.25;;;;;;;-148.88;76.00;74562.75;5073220;28;20024;-86
2022/10/24 10:19:19;;;;;;;4.95;1.38;;;;;;;-148.88;75.57;74546.50;5072236;28;20033;-87
2022/10/24 10:22:04;;;;;;;5.00;1.38;;;;;;;-148.88;74.98;74526.19;5072635;28;20036;-87
2022/10/24 10:24:38;;;;;;;7.60;1.60;;;;;;;-148.88;73.64;74514.00;5073662;28;20518;-87
2022/10/24 10:27:31;;;;;;;8.45;1.67;;;;;;;-148.88;74.01;74509.94;5072849;28;20085;-88
2022/10/24 10:30:28;;;;;;;3.58;1.13;;;;;;;-148.88;73.72;74481.53;5073139;28;20029;-87
2022/10/24 10:33:04;;;;;;;7.15;1.27;;;;;;;-148.88;71.92;74442.94;5071686;28;20053;-87
2022/10/24 10:35:48;;;;;;;4.93;1.60;;;;;;;-148.88;70.78;74408.44;5072137;28;20024;-87
2022/10/24 10:38:22;;;;;;;;;;;;;;;-148.88;68.00;74436.84;5072130;28;20051;-87
2022/10/24 10:41:12;;;;;;;5.20;1.50;;;;;;;-148.88;70.18;74444.97;5073388;28;19922;-88
2022/10/24 10:43:49;;;;;;;6.70;1.20;;;;;;;-148.88;68.91;74473.41;5072938;28;20028;-87
2022/10/24 10:46:42;;;;;;;5.47;1.17;;;;;;;-148.88;71.57;74499.81;5071817;28;20027;-86
2022/10/24 10:49:38;;;;;;;6.20;1.48;;;;;;;-148.88;71.63;74522.13;5071850;28;20115;-87
2022/10/24 10:52:11;;;;;;;6.28;1.58;;;;;;;-148.88;71.18;74548.53;5071961;28;20037;-87
2022/10/24 10:54:49;;;;;;;7.85;1.17;;;;;;;-148.88;72.47;74522.13;5072149;28;20130;-87
2022/10/24 10:57:17;;;;;;;3.88;1.20;;;;;;;-148.88;71.62;74522.13;5073410;28;20039;-86
2022/10/24 10:59:46;;;;;;;8.68;1.48;;;;;;;-148.88;71.92;74518.06;5072285;28;20105;-87
2022/10/24 11:02:29;;;;;;;7.95;2.03;;;;;;;-148.88;72.57;74501.81;5071874;28;20031;-87
2022/10/24 11:05:20;;;;;;;7.28;1.27;;;;;;;-148.88;73.25;74475.44;5072345;28;20021;-88
2022/10/24 11:08:09;;;;;;;4.50;1.20;;;;;;;-148.88;73.06;74444.97;5071899;28;20028;-87
2022/10/24 11:10:50;;;;;;;4.07;1.20;;;;;;;-148.88;72.55;74438.88;5071430;28;20107;-88
2022/10/24 11:13:26;;;;;;;7.35;1.55;;;;;;;-148.88;71.46;74453.09;5071884;28;20025;-86
2022/10/24 11:16:06;;;;;;;9.18;1.40;;;;;;;-148.88;71.90;74469.34;5071644;28;20481;-86
2022/10/24 11:18:35;;;;;;;8.27;1.38;;;;;;;-148.88;72.08;74485.59;5072837;28;20382;-87
2022/10/24 11:21:11;;;;;;;9.10;1.50;;;;;;;-148.88;72.71;74514.00;5072685;28;20103;-87
2022/10/24 11:23:45;;;;;;;5.78;1.30;;;;;;;-148.88;72.87;74526.19;5073317;28;20402;-87
2022/10/24 11:26:21;;;;;;;6.43;1.42;;;;;;;-148.88;72.62;74495.75;5071693;28;20020;-87
2022/10/24 11:28:56;;;;;;;3.95;1.20;;;;;;;-148.88;72.20;74432.78;5072199;28;20024;-88